Hammond, Minnesota
Current Conditions -  °F | °C
As of 9:54 AM on Thursday 27 Nov 2014 (Local Time) from K9MN Reporting Station
Clear Clear  
Wind Chill: -15°   Ceiling: Unl
Heat Index:   Visibility: 10mi
Dew Point: -5°   Wind: 12mph
Humidity: 74%   Direction: 280°W
Pressure: 30.48"   Gusts: NA
Location:  44.2838°N, 92.3888°W
Report Text: K9MN 271554Z AUTO 28010KT 10SM CLR M17/M20 A3048 RMK AO1 T11691205
Loading
Personal Weather Stations






























Interactive Weather Map New forecast layout! Learn more

10-Day Weather Forecast

Advertisements
Track Severe Weather on mobile